createdAt,value
2017-12-29T00:05:57.571Z,4.60
2017-12-29T00:08:41.904Z,3.90
2017-12-29T00:15:16.100Z,4.60
2017-12-29T00:18:01.149Z,4.60
2017-12-29T00:21:19.616Z,4.60
2017-12-29T00:24:10.836Z,4.90
2017-12-29T00:31:03.676Z,4.90
2017-12-29T00:33:53.509Z,4.70
2017-12-29T00:51:32.866Z,5.10
2017-12-29T00:54:06.866Z,4.80
2017-12-29T01:01:05.187Z,4.60
2017-12-29T01:03:55.829Z,4.80
2017-12-29T01:06:39.729Z,5.00
2017-12-29T01:13:12.889Z,4.90
2017-12-29T01:16:47.306Z,4.80
2017-12-29T01:19:22.354Z,4.70
2017-12-29T01:40:07.942Z,4.40
2017-12-29T01:43:24.872Z,4.30
2017-12-29T01:46:55.874Z,4.60
2017-12-29T01:49:57.462Z,4.30
2017-12-29T01:52:37.329Z,4.20
2017-12-29T02:10:10.236Z,4.80
2017-12-29T02:24:28.574Z,4.70
2017-12-29T02:34:05.792Z,4.10
2017-12-29T02:36:57.343Z,4.10
2017-12-29T02:46:13.273Z,4.00
2017-12-29T02:48:52.674Z,3.80
2017-12-29T02:54:44.239Z,3.80
2017-12-29T03:02:03.033Z,3.90
2017-12-29T03:05:00.342Z,4.30
2017-12-29T03:07:56.522Z,4.30
2017-12-29T03:14:31.651Z,4.10
2017-12-29T03:17:21.423Z,4.10
2017-12-29T03:20:04.969Z,4.30
2017-12-29T03:22:46.370Z,4.70
2017-12-29T03:25:19.559Z,5.00
2017-12-29T03:36:15.908Z,3.90
2017-12-29T03:42:43.477Z,4.00
2017-12-29T03:52:29.107Z,4.00
2017-12-29T03:55:07.970Z,4.30
2017-12-29T03:58:37.420Z,4.40
2017-12-29T04:05:26.036Z,3.90
2017-12-29T04:07:57.923Z,3.90
2017-12-29T04:10:32.576Z,4.00
2017-12-29T04:13:07.446Z,4.10
2017-12-29T04:15:38.136Z,4.00
2017-12-29T04:18:21.925Z,4.10
2017-12-29T04:20:55.699Z,4.10
2017-12-29T04:23:32.834Z,4.00
2017-12-29T04:26:05.634Z,4.00
2017-12-29T04:28:38.534Z,3.90
2017-12-29T04:31:11.984Z,3.90
2017-12-29T04:33:42.566Z,3.90
2017-12-29T04:36:18.194Z,4.00
2017-12-29T04:39:17.193Z,4.00
2017-12-29T04:41:55.833Z,4.20
2017-12-29T04:47:28.658Z,3.90
2017-12-29T04:52:42.615Z,3.50
2017-12-29T04:55:18.122Z,3.50
2017-12-29T04:57:56.643Z,3.50
2017-12-29T05:00:32.733Z,3.40
2017-12-29T05:03:06.992Z,3.40
2017-12-29T05:05:38.024Z,3.60
2017-12-29T05:08:09.771Z,3.70
2017-12-29T05:10:40.872Z,3.90
2017-12-29T05:13:13.124Z,3.90
2017-12-29T05:15:46.162Z,3.90
2017-12-29T05:18:16.243Z,3.90
2017-12-29T05:20:50.740Z,3.70
2017-12-29T05:23:38.724Z,3.70
2017-12-29T05:26:14.422Z,3.70
2017-12-29T05:28:47.614Z,3.60
2017-12-29T05:31:22.615Z,3.50
2017-12-29T05:34:06.326Z,3.30
2017-12-29T05:36:40.509Z,3.50
2017-12-29T05:39:28.283Z,3.40
2017-12-29T05:42:07.991Z,3.50
2017-12-29T05:44:44.299Z,3.70
2017-12-29T05:47:19.998Z,3.80
2017-12-29T05:49:50.638Z,3.80
2017-12-29T05:52:21.788Z,3.50
2017-12-29T05:54:57.528Z,3.60
2017-12-29T05:57:37.558Z,3.50
2017-12-29T06:00:09.296Z,3.60
2017-12-29T06:02:40.674Z,3.80
2017-12-29T06:05:12.799Z,3.90
2017-12-29T06:07:46.537Z,3.70
2017-12-29T06:10:18.326Z,3.70
2017-12-29T06:12:52.667Z,3.70
2017-12-29T06:15:26.572Z,3.50
2017-12-29T06:17:59.165Z,3.60
2017-12-29T06:20:30.525Z,3.60
2017-12-29T06:23:05.607Z,4.10
2017-12-29T06:25:46.634Z,4.00
2017-12-29T06:28:20.686Z,3.70
2017-12-29T06:30:52.121Z,3.50
2017-12-29T06:33:29.501Z,3.30
2017-12-29T06:36:01.590Z,3.20
2017-12-29T06:38:31.645Z,3.60
2017-12-29T06:41:03.722Z,3.40
2017-12-29T06:43:35.184Z,3.70
2017-12-29T06:46:07.265Z,3.70
2017-12-29T06:48:37.955Z,3.60
2017-12-29T06:51:09.842Z,3.70
2017-12-29T06:53:51.053Z,3.30
2017-12-29T06:56:20.663Z,3.60
2017-12-29T06:58:52.363Z,3.40
2017-12-29T07:01:35.992Z,3.30
2017-12-29T07:04:08.761Z,3.10
2017-12-29T07:06:41.335Z,3.20
2017-12-29T07:09:15.122Z,3.50
2017-12-29T07:11:45.814Z,3.80
2017-12-29T07:14:24.760Z,3.80
2017-12-29T07:16:57.480Z,4.10
2017-12-29T07:19:27.829Z,4.10
2017-12-29T07:21:59.830Z,4.20
2017-12-29T07:24:37.724Z,4.30
2017-12-29T07:27:20.489Z,4.50
2017-12-29T07:29:52.812Z,4.20
2017-12-29T07:32:25.211Z,4.30
2017-12-29T07:37:36.727Z,3.90
2017-12-29T07:40:07.290Z,3.90
2017-12-29T07:42:38.189Z,4.10
2017-12-29T07:45:10.537Z,3.90
2017-12-29T07:47:42.618Z,4.10
2017-12-29T07:50:12.700Z,4.10
2017-12-29T07:52:42.869Z,3.70
2017-12-29T07:55:16.618Z,3.60
2017-12-29T07:57:47.972Z,3.50
2017-12-29T08:00:20.732Z,4.10
2017-12-29T08:02:52.964Z,4.20
2017-12-29T08:05:28.034Z,3.50
2017-12-29T08:08:02.573Z,3.50
2017-12-29T08:13:58.190Z,3.20
2017-12-29T08:16:48.040Z,3.30
2017-12-29T08:19:19.246Z,3.20
2017-12-29T08:21:53.044Z,3.50
2017-12-29T08:24:26.025Z,3.60
2017-12-29T08:27:03.362Z,3.90
2017-12-29T08:29:34.049Z,3.80
2017-12-29T08:32:04.289Z,3.80
2017-12-29T08:34:37.229Z,3.70
2017-12-29T08:37:08.117Z,3.70
2017-12-29T08:39:39.851Z,4.10
2017-12-29T08:42:16.275Z,4.20
2017-12-29T08:44:48.547Z,4.10
2017-12-29T08:47:20.879Z,4.00
2017-12-29T08:50:01.674Z,3.50
2017-12-29T08:55:21.334Z,3.30
2017-12-29T08:57:53.198Z,3.30
2017-12-29T09:00:25.761Z,3.60
2017-12-29T09:03:06.084Z,3.60
2017-12-29T09:05:37.944Z,3.60
2017-12-29T09:08:11.712Z,3.60
2017-12-29T09:10:42.449Z,3.80
2017-12-29T09:13:16.547Z,3.70
2017-12-29T09:15:52.733Z,4.20
2017-12-29T09:18:30.866Z,4.20
2017-12-29T09:21:02.189Z,4.30
2017-12-29T09:23:40.625Z,4.40
2017-12-29T09:26:15.880Z,4.60
2017-12-29T09:28:55.885Z,4.60
2017-12-29T09:31:31.957Z,4.60
2017-12-29T09:36:37.806Z,4.90
2017-12-29T09:39:22.110Z,4.50
2017-12-29T09:42:02.497Z,4.60
2017-12-29T09:44:33.581Z,4.40
2017-12-29T09:47:08.719Z,4.40
2017-12-29T09:52:15.555Z,4.70
2017-12-29T09:54:50.109Z,4.50
2017-12-29T09:57:20.808Z,4.30
2017-12-29T09:59:51.147Z,4.70
2017-12-29T10:02:24.527Z,4.20
2017-12-29T10:04:57.375Z,4.30
2017-12-29T10:07:28.557Z,4.50
2017-12-29T10:10:01.202Z,4.40
2017-12-29T10:12:36.536Z,4.50
2017-12-29T10:15:07.176Z,4.90
2017-12-29T10:17:38.626Z,4.90
2017-12-29T10:20:12.836Z,5.00
2017-12-29T10:22:45.058Z,5.10
2017-12-29T10:25:17.898Z,5.00
2017-12-29T10:27:50.515Z,4.80
2017-12-29T10:30:20.806Z,4.90
2017-12-29T10:32:56.626Z,5.10
2017-12-29T10:35:26.546Z,5.60
2017-12-29T10:38:06.608Z,5.80
2017-12-29T10:40:38.024Z,5.60
2017-12-29T10:43:13.879Z,5.80
2017-12-29T10:45:45.576Z,5.50
2017-12-29T10:48:18.146Z,6.00
2017-12-29T10:50:48.476Z,6.00
2017-12-29T10:53:20.124Z,6.40
2017-12-29T10:55:51.826Z,6.80
2017-12-29T10:58:22.651Z,6.80
2017-12-29T11:00:54.778Z,6.40
2017-12-29T11:03:30.500Z,6.30
2017-12-29T11:06:00.478Z,6.50
2017-12-29T11:08:34.209Z,6.70
2017-12-29T11:11:05.136Z,6.70
2017-12-29T11:13:35.648Z,6.30
2017-12-29T11:16:07.516Z,6.50
2017-12-29T11:18:37.959Z,6.60
2017-12-29T11:21:10.091Z,6.50
2017-12-29T11:23:42.013Z,6.50
2017-12-29T11:26:13.184Z,6.10
2017-12-29T11:28:44.288Z,6.10
2017-12-29T11:31:16.805Z,6.50
2017-12-29T11:36:24.528Z,6.50
2017-12-29T11:39:02.527Z,7.20
2017-12-29T11:41:49.074Z,7.20
2017-12-29T11:44:19.134Z,6.90
2017-12-29T11:46:53.126Z,6.70
2017-12-29T11:53:19.785Z,6.80
2017-12-29T11:55:51.624Z,7.30
2017-12-29T11:58:37.794Z,7.00
2017-12-29T12:01:11.020Z,6.90
2017-12-29T12:04:01.537Z,6.50
2017-12-29T12:06:52.808Z,6.80
2017-12-29T12:09:27.827Z,6.70
2017-12-29T12:12:10.510Z,6.90
2017-12-29T12:14:41.977Z,7.00
2017-12-29T12:17:18.111Z,7.30
2017-12-29T12:20:03.279Z,7.00
2017-12-29T12:22:34.489Z,7.10
2017-12-29T12:25:41.761Z,7.20
2017-12-29T12:28:15.549Z,7.20
2017-12-29T12:30:48.249Z,6.40
2017-12-29T12:33:20.099Z,6.60
2017-12-29T12:36:00.660Z,6.20
2017-12-29T12:38:31.879Z,5.90
2017-12-29T12:41:04.570Z,5.90
2017-12-29T12:43:36.844Z,6.20
2017-12-29T12:46:09.233Z,6.20
2017-12-29T12:52:10.127Z,6.40
2017-12-29T12:54:40.423Z,6.20
2017-12-29T13:00:04.151Z,6.10
2017-12-29T13:02:36.143Z,5.30
2017-12-29T13:07:48.115Z,5.90
2017-12-29T13:10:33.388Z,6.10
2017-12-29T13:13:06.203Z,6.00
2017-12-29T13:15:38.299Z,6.00
2017-12-29T13:18:12.861Z,5.70
2017-12-29T13:20:46.206Z,6.10
2017-12-29T13:23:18.713Z,6.70
2017-12-29T13:25:50.809Z,6.70
2017-12-29T13:28:24.364Z,6.50
2017-12-29T13:30:55.265Z,6.60
2017-12-29T13:33:34.706Z,6.50
2017-12-29T13:36:06.866Z,6.60
2017-12-29T13:38:38.631Z,6.90
2017-12-29T13:41:13.438Z,6.90
2017-12-29T13:43:45.805Z,6.90
2017-12-29T13:46:17.968Z,6.90
2017-12-29T13:48:49.532Z,6.70
2017-12-29T13:51:20.450Z,5.90
2017-12-29T13:53:51.400Z,6.00
2017-12-29T13:56:22.510Z,5.80
2017-12-29T13:58:53.256Z,6.10
2017-12-29T14:01:25.225Z,5.90
2017-12-29T14:03:55.230Z,5.80
2017-12-29T14:06:26.590Z,5.60
2017-12-29T14:09:00.160Z,5.70
2017-12-29T14:11:32.171Z,6.20
2017-12-29T14:14:02.190Z,6.40
2017-12-29T15:04:21.837Z,5.50
2017-12-29T15:06:52.047Z,5.00
2017-12-29T15:09:22.001Z,5.00
2017-12-29T15:11:53.240Z,5.30
2017-12-29T15:14:23.331Z,5.30
2017-12-29T15:16:55.155Z,5.10
2017-12-29T15:19:26.727Z,5.00
2017-12-29T15:21:58.237Z,4.60
2017-12-29T15:24:30.446Z,4.70
2017-12-29T15:27:04.327Z,4.70
2017-12-29T15:29:34.249Z,4.50
2017-12-29T15:32:10.722Z,4.50
2017-12-29T15:34:40.385Z,4.40
2017-12-29T15:37:10.204Z,4.30
2017-12-29T15:39:41.713Z,4.40
2017-12-29T15:42:11.975Z,4.10
2017-12-29T15:44:42.704Z,3.90
2017-12-29T15:47:13.319Z,3.90
2017-12-29T15:49:43.244Z,3.60
2017-12-29T15:52:14.137Z,3.60
2017-12-29T15:54:44.152Z,3.60
2017-12-29T15:57:14.875Z,3.60
2017-12-29T15:59:45.197Z,3.80
2017-12-29T16:02:17.117Z,3.70
2017-12-29T16:04:48.235Z,3.60
2017-12-29T16:07:20.392Z,3.90
2017-12-29T16:09:51.151Z,3.80
2017-12-29T16:12:21.212Z,3.80
2017-12-29T16:14:53.440Z,3.80
2017-12-29T16:17:23.983Z,3.80
2017-12-29T16:19:54.693Z,3.70
2017-12-29T16:22:24.572Z,3.60
2017-12-29T16:24:55.662Z,3.60
2017-12-29T16:27:27.850Z,3.30
2017-12-29T16:29:58.556Z,3.30
2017-12-29T16:32:29.296Z,3.30
2017-12-29T16:35:00.789Z,3.20
2017-12-29T16:37:34.748Z,3.30
2017-12-29T16:40:05.027Z,3.20
2017-12-29T16:42:37.721Z,3.10
2017-12-29T16:45:07.706Z,2.90
2017-12-29T16:50:47.108Z,3.00
2017-12-29T16:53:30.463Z,2.70
2017-12-29T16:56:00.522Z,2.60
2017-12-29T16:58:32.197Z,2.60
2017-12-29T17:01:01.887Z,2.50
2017-12-29T17:03:31.977Z,2.20
2017-12-29T17:06:01.992Z,2.10
2017-12-29T17:08:31.855Z,2.30
2017-12-29T17:11:02.767Z,2.20
2017-12-29T17:13:32.646Z,2.20
2017-12-29T17:16:07.867Z,2.00
2017-12-29T17:18:40.221Z,2.10
2017-12-29T17:21:12.154Z,2.10
2017-12-29T17:23:43.504Z,2.20
2017-12-29T17:26:16.970Z,2.20
2017-12-29T17:33:30.017Z,2.40
2017-12-29T17:36:00.483Z,2.30
2017-12-29T17:38:31.107Z,1.90
2017-12-29T17:41:02.628Z,1.60
2017-12-29T17:43:37.724Z,1.70
2017-12-29T17:46:08.116Z,1.50
2017-12-29T17:48:37.928Z,1.40
2017-12-29T17:51:08.551Z,1.00
2017-12-29T17:53:38.490Z,0.60
2017-12-29T17:56:09.233Z,0.30
2017-12-29T17:58:40.470Z,0.20
2017-12-29T18:01:10.782Z,0.20
2017-12-29T18:03:41.014Z,0.60
2017-12-29T18:06:11.781Z,0.80
2017-12-29T18:08:41.591Z,0.80
2017-12-29T18:11:12.531Z,0.50
2017-12-29T18:13:44.132Z,0.50
2017-12-29T18:16:14.234Z,0.80
2017-12-29T18:18:45.629Z,1.10
2017-12-29T18:21:19.487Z,1.30
2017-12-29T18:23:49.690Z,1.30
2017-12-29T18:26:20.434Z,1.00
2017-12-29T18:28:51.730Z,1.00
2017-12-29T18:31:21.702Z,1.10
2017-12-29T18:33:54.447Z,0.70
2017-12-29T18:36:27.225Z,0.90
2017-12-29T18:39:01.874Z,1.20
2017-12-29T18:41:31.559Z,1.20
2017-12-29T18:44:02.044Z,1.30
2017-12-29T18:46:32.641Z,0.90
2017-12-29T18:49:02.160Z,0.90
2017-12-29T18:51:32.676Z,0.80
2017-12-29T18:54:11.532Z,0.90
2017-12-29T18:56:42.659Z,1.20
2017-12-29T18:59:13.384Z,1.20
2017-12-29T19:01:44.293Z,1.20
2017-12-29T19:04:14.609Z,1.00
2017-12-29T19:06:48.176Z,0.90
2017-12-29T19:09:19.229Z,1.10
2017-12-29T19:11:50.408Z,0.70
2017-12-29T19:14:21.455Z,0.50
2017-12-29T19:17:10.779Z,0.80
2017-12-29T19:19:41.016Z,0.70
2017-12-29T19:22:11.146Z,0.50
2017-12-29T19:24:41.854Z,0.50
2017-12-29T19:27:12.477Z,0.50
2017-12-29T19:29:45.996Z,0.30
2017-12-29T19:32:16.570Z,0.40
2017-12-29T19:34:47.522Z,0.50
2017-12-29T19:37:21.616Z,0.60
2017-12-29T19:39:51.317Z,0.60
2017-12-29T19:42:21.044Z,0.60
2017-12-29T19:44:52.496Z,0.60
2017-12-29T19:47:23.643Z,0.60
2017-12-29T19:49:54.161Z,0.30
2017-12-29T19:52:24.883Z,0.40
2017-12-29T19:54:54.314Z,0.40
2017-12-29T19:57:25.421Z,0.50
2017-12-29T19:59:55.862Z,0.40
2017-12-29T20:02:27.473Z,0.50
2017-12-29T20:04:59.314Z,0.40
2017-12-29T20:07:30.983Z,0.20
2017-12-29T20:10:01.422Z,0.10
2017-12-29T20:12:31.262Z,0.10
2017-12-29T20:15:01.853Z,0.00
2017-12-29T20:17:32.476Z,0.10
2017-12-29T20:20:04.187Z,-0.10
2017-12-29T20:22:34.123Z,-0.20
2017-12-29T20:25:04.176Z,-0.30
2017-12-29T20:27:34.103Z,-0.60
2017-12-29T20:30:04.083Z,-0.30
2017-12-29T20:32:33.980Z,-0.30
2017-12-29T20:35:04.360Z,-0.40
2017-12-29T20:37:34.658Z,-0.10
2017-12-29T20:40:05.135Z,-0.30
2017-12-29T20:42:35.521Z,-0.30
2017-12-29T20:45:07.518Z,-0.60
2017-12-29T20:47:37.612Z,-0.30
2017-12-29T20:50:07.687Z,-0.10
2017-12-29T20:52:37.753Z,0.00
2017-12-29T20:55:07.926Z,0.00
2017-12-29T20:57:38.476Z,-0.80
2017-12-29T21:00:08.152Z,-0.60
2017-12-29T21:02:38.687Z,-0.40
2017-12-29T21:05:08.579Z,-0.30
2017-12-29T21:07:38.407Z,-0.40
2017-12-29T21:10:07.954Z,-0.50
2017-12-29T21:12:38.151Z,-0.90
2017-12-29T21:15:08.624Z,-0.80
2017-12-29T21:17:38.614Z,-0.80
2017-12-29T21:20:08.378Z,-0.60
2017-12-29T21:22:38.647Z,-0.80
2017-12-29T21:25:09.025Z,-0.80
2017-12-29T21:27:39.145Z,-1.10
2017-12-29T21:30:09.077Z,-1.30
2017-12-29T21:32:40.070Z,-1.10
2017-12-29T21:35:10.050Z,-1.00
2017-12-29T21:37:39.805Z,-0.90
2017-12-29T21:40:09.967Z,-1.50
2017-12-29T21:42:40.044Z,-1.90
2017-12-29T21:45:10.513Z,-2.00
2017-12-29T21:47:40.296Z,-1.80
2017-12-29T21:50:10.453Z,-1.60
2017-12-29T21:52:40.478Z,-1.70
2017-12-29T21:55:10.396Z,-1.60
2017-12-29T21:57:39.967Z,-1.60
2017-12-29T22:00:10.329Z,-1.60
2017-12-29T22:02:40.772Z,-1.50
2017-12-29T22:05:10.622Z,-1.30
2017-12-29T22:07:40.663Z,-1.10
2017-12-29T22:10:10.411Z,-0.80
2017-12-29T22:12:40.356Z,-0.60
2017-12-29T22:15:10.083Z,-0.60
2017-12-29T22:17:40.705Z,-1.00
2017-12-29T22:20:10.356Z,-1.00
2017-12-29T22:22:41.171Z,-1.50
2017-12-29T22:25:12.707Z,-1.30
2017-12-29T22:27:53.005Z,-1.20
2017-12-29T22:30:24.178Z,-1.10
2017-12-29T22:32:55.359Z,-0.90
2017-12-29T22:35:26.633Z,-1.10
2017-12-29T22:37:59.147Z,-1.50
2017-12-29T22:40:37.114Z,-1.30
2017-12-29T22:43:07.827Z,-1.00
2017-12-29T22:45:40.349Z,-1.20
2017-12-29T22:48:11.056Z,-1.20
2017-12-29T22:50:41.849Z,-1.30
2017-12-29T22:53:13.204Z,-1.50
2017-12-29T22:55:44.626Z,-1.30
2017-12-29T22:58:16.066Z,-1.10
2017-12-29T23:00:52.182Z,-1.10
2017-12-29T23:03:25.931Z,-1.00
2017-12-29T23:05:59.242Z,-0.90
2017-12-29T23:08:31.004Z,-1.20
2017-12-29T23:11:02.388Z,-1.30
2017-12-29T23:13:35.865Z,-1.30
2017-12-29T23:16:16.474Z,-1.40
2017-12-29T23:18:49.212Z,-1.10
2017-12-29T23:21:25.088Z,-0.70
2017-12-29T23:23:59.374Z,-0.70
2017-12-29T23:26:32.531Z,-0.50
2017-12-29T23:29:08.012Z,-0.30
2017-12-29T23:31:40.081Z,-0.50
2017-12-29T23:34:10.432Z,-0.50
2017-12-29T23:36:41.606Z,-0.80
2017-12-29T23:42:13.444Z,-0.80
2017-12-29T23:44:47.933Z,-0.80
2017-12-29T23:47:20.577Z,-0.70
2017-12-29T23:49:57.036Z,-0.40
2017-12-29T23:52:35.418Z,-0.40
2017-12-29T23:55:12.184Z,-0.10
2017-12-29T23:57:45.298Z,-0.10
